Time;durP1;ratioP1;P1;durP2;ratioP2;P2;SDS_P1;SDS_P2;PMS_P1;PMS_P2;Temp;Humidity;BMP_temperature;BMP_pressure;BME280_temperature;BME280_humidity;BME280_pressure;Samples;Min_cycle;Max_cycle;Signal;HPM_P1;HPM_P2
2022/01/23 00:00:45;;;;;;;21.55;6.60;;;31.60;57.10;;;;;;4996312;28;20019;-76
2022/01/23 00:03:20;;;;;;;36.60;7.85;;;31.60;57.20;;;;;;4998393;28;20045;-75
2022/01/23 00:05:49;;;;;;;14.80;6.15;;;31.60;57.40;;;;;;4999194;28;20053;-73
2022/01/23 00:08:20;;;;;;;17.15;6.35;;;31.50;57.50;;;;;;4992905;28;20026;-80
2022/01/23 00:10:50;;;;;;;17.83;6.93;;;31.50;57.70;;;;;;4988819;28;20023;-77
2022/01/23 00:13:27;;;;;;;12.77;5.68;;;31.50;57.80;;;;;;4989487;28;20386;-74
2022/01/23 00:18:38;;;;;;;;;;;31.50;58.00;;;;;;4995188;28;20449;-73
2022/01/23 00:21:04;;;;;;;23.17;6.47;;;31.50;58.10;;;;;;4996558;28;19909;-75
2022/01/23 00:31:28;;;;;;;33.28;7.90;;;31.50;58.20;;;;;;4998912;28;20083;-75
2022/01/23 00:33:56;;;;;;;18.08;7.28;;;31.40;58.20;;;;;;4992604;28;20022;-74
2022/01/23 00:36:24;;;;;;;15.50;6.97;;;31.40;58.30;;;;;;5000142;28;20462;-78
2022/01/23 00:38:52;;;;;;;18.40;7.13;;;31.40;58.30;;;;;;5025509;28;20429;-76
2022/01/23 00:41:19;;;;;;;16.42;6.63;;;31.30;58.30;;;;;;5001301;28;20027;-79
2022/01/23 00:43:46;;;;;;;21.77;7.90;;;31.30;58.20;;;;;;4988654;28;20053;-79
2022/01/23 00:51:32;;;;;;;15.95;7.45;;;31.30;58.40;;;;;;4992302;28;20037;-78
2022/01/23 00:54:01;;;;;;;28.10;8.75;;;31.30;58.50;;;;;;4993015;28;20034;-82
2022/01/23 00:56:27;;;;;;;27.35;8.38;;;31.30;58.60;;;;;;4992425;28;20097;-79
2022/01/23 00:58:54;;;;;;;28.63;10.88;;;31.20;58.60;;;;;;4997968;28;20580;-81
2022/01/23 01:01:21;;;;;;;31.33;10.02;;;31.30;58.70;;;;;;4996704;28;20019;-81
2022/01/23 01:03:48;;;;;;;31.52;12.20;;;31.30;58.80;;;;;;4995012;28;20058;-79
2022/01/23 01:06:54;;;;;;;28.48;12.32;;;31.20;58.80;;;;;;5009527;28;20038;-79
2022/01/23 01:10:07;;;;;;;42.13;15.57;;;31.20;58.80;;;;;;5002175;28;20026;-79
2022/01/23 01:13:14;;;;;;;38.10;13.48;;;31.20;58.70;;;;;;4984146;28;20038;-78
2022/01/23 01:32:11;;;;;;;16.52;8.93;;;31.00;57.50;;;;;;4998976;28;20085;-79
2022/01/23 01:34:51;;;;;;;17.48;8.52;;;30.90;57.40;;;;;;4991435;28;20018;-78
2022/01/23 01:37:17;;;;;;;17.25;8.43;;;30.90;57.30;;;;;;4985081;28;20056;-79
2022/01/23 01:39:44;;;;;;;19.33;8.23;;;30.80;57.20;;;;;;4988373;28;20046;-78
2022/01/23 01:42:10;;;;;;;22.58;7.68;;;30.80;57.20;;;;;;4995973;28;20099;-79
2022/01/23 01:44:37;;;;;;;18.33;8.35;;;30.80;57.10;;;;;;4992011;28;20562;-77
2022/01/23 01:47:07;;;;;;;17.90;7.07;;;30.80;57.10;;;;;;4993672;28;20106;-78
2022/01/23 01:49:34;;;;;;;16.40;6.80;;;30.80;57.10;;;;;;4994132;28;20501;-77
2022/01/23 01:52:02;;;;;;;18.83;8.15;;;30.70;57.00;;;;;;4990602;28;20030;-74
2022/01/23 01:54:31;;;;;;;19.65;8.90;;;30.80;57.10;;;;;;4993342;28;20033;-78
2022/01/23 01:57:09;;;;;;;15.77;7.25;;;30.70;57.00;;;;;;4991733;28;20030;-73
2022/01/23 02:00:11;;;;;;;16.75;7.65;;;30.70;57.10;;;;;;4986196;28;20046;-75
2022/01/23 02:03:17;;;;;;;22.30;9.05;;;30.70;57.20;;;;;;4991851;28;20049;-76
2022/01/23 02:08:25;;;;;;;21.08;8.57;;;30.70;57.30;;;;;;4993136;28;20084;-76
2022/01/23 02:10:57;;;;;;;19.65;8.73;;;30.60;57.40;;;;;;4985946;28;20050;-72
2022/01/23 02:13:38;;;;;;;19.90;9.10;;;30.60;57.40;;;;;;4999870;28;20030;-79
2022/01/23 02:16:35;;;;;;;16.80;8.07;;;30.60;57.40;;;;;;4994053;28;20039;-73
2022/01/23 02:51:56;;;;;;;25.25;12.25;;;30.40;58.00;;;;;;4997263;28;20453;-73
2022/01/23 02:55:11;;;;;;;30.40;13.32;;;30.40;58.10;;;;;;4987643;28;20118;-73
2022/01/23 02:57:20;;;;;;;28.48;11.63;;;30.40;58.20;;;;;;4989584;28;20042;-74
2022/01/23 02:59:48;;;;;;;27.92;12.88;;;30.30;58.20;;;;;;4993350;28;20023;-74
2022/01/23 03:04:53;;;;;;;31.85;13.52;;;30.30;58.30;;;;;;4999805;28;20089;-76
2022/01/23 03:10:17;;;;;;;32.13;11.95;;;30.30;58.50;;;;;;4993595;28;20113;-77
2022/01/23 03:15:46;;;;;;;27.42;13.00;;;30.20;58.50;;;;;;4990938;28;20033;-74
2022/01/23 03:29:25;;;;;;;35.15;13.70;;;30.20;58.80;;;;;;4993224;28;20092;-74
2022/01/23 03:34:20;;;;;;;32.85;12.18;;;30.10;58.90;;;;;;4998992;28;20022;-75
2022/01/23 03:36:46;;;;;;;33.20;12.85;;;30.10;59.00;;;;;;4990535;28;20113;-73
2022/01/23 03:39:13;;;;;;;30.33;12.23;;;30.10;59.00;;;;;;4996422;28;20026;-76
2022/01/23 03:41:43;;;;;;;22.98;11.07;;;30.10;59.00;;;;;;4991671;28;20061;-73
2022/01/23 03:44:12;;;;;;;26.52;11.93;;;30.10;59.10;;;;;;4995274;28;20033;-75
2022/01/23 03:51:56;;;;;;;;;;;30.00;58.30;;;;;;4989318;28;20045;-74
2022/01/23 03:54:24;;;;;;;24.27;10.95;;;30.00;58.00;;;;;;4993248;28;19935;-77
2022/01/23 03:56:50;;;;;;;30.33;13.10;;;30.00;57.90;;;;;;4991609;28;20694;-78
2022/01/23 03:59:17;;;;;;;30.70;14.07;;;30.00;57.90;;;;;;4994955;28;20031;-76
2022/01/23 04:01:43;;;;;;;43.17;16.73;;;30.00;58.00;;;;;;4998411;28;20037;-77
2022/01/23 04:04:17;;;;;;;44.80;18.58;;;30.00;58.80;;;;;;4996812;28;20048;-79
2022/01/23 04:06:43;;;;;;;45.17;18.30;;;30.00;58.30;;;;;;4991996;28;20031;-77
2022/01/23 04:09:10;;;;;;;44.58;17.70;;;29.90;58.40;;;;;;4997025;28;20041;-78
2022/01/23 04:11:36;;;;;;;68.40;20.08;;;29.90;58.50;;;;;;4999423;28;20045;-77
2022/01/23 04:14:07;;;;;;;80.65;23.15;;;29.90;58.70;;;;;;4988495;28;20027;-79
2022/01/23 04:48:14;;;;;;;47.28;16.70;;;29.70;58.00;;;;;;4991812;28;20061;-72
2022/01/23 05:00:22;;;;;;;45.78;13.98;;;29.70;58.20;;;;;;4990324;28;20050;-77
2022/01/23 05:05:36;;;;;;;69.65;15.65;;;29.70;58.60;;;;;;4995753;28;20045;-77
2022/01/23 05:08:05;;;;;;;39.63;13.77;;;29.70;58.70;;;;;;4993203;28;20493;-74
2022/01/23 05:10:34;;;;;;;32.83;11.20;;;29.60;58.70;;;;;;4991626;28;20073;-79
2022/01/23 05:13:02;;;;;;;40.25;10.75;;;29.60;58.70;;;;;;4993348;28;20045;-79
2022/01/23 05:15:28;;;;;;;28.02;10.48;;;29.60;58.80;;;;;;4988338;28;20038;-78
2022/01/23 05:17:55;;;;;;;30.95;11.07;;;29.60;58.70;;;;;;5000566;28;20026;-76
2022/01/23 05:24:46;;;;;;;35.80;12.75;;;29.60;58.70;;;;;;4974132;28;20485;-73
2022/01/23 05:27:13;;;;;;;49.47;28.65;;;29.60;58.60;;;;;;4991951;28;20052;-74
2022/01/23 05:29:39;;;;;;;55.28;32.50;;;29.70;58.70;;;;;;4990091;28;20053;-74
2022/01/23 05:32:09;;;;;;;44.13;25.65;;;29.70;58.60;;;;;;5007293;28;20039;-75
2022/01/23 05:34:36;;;;;;;42.17;22.27;;;29.70;58.50;;;;;;4995781;28;20404;-78
2022/01/23 05:37:02;;;;;;;58.92;21.63;;;29.70;58.30;;;;;;4992813;28;20034;-75
2022/01/23 05:39:32;;;;;;;52.72;17.15;;;29.70;58.80;;;;;;4994469;28;20026;-77
2022/01/23 05:42:06;;;;;;;63.97;17.88;;;29.70;58.20;;;;;;4993302;28;20114;-79
2022/01/23 05:44:35;;;;;;;54.33;16.00;;;29.70;58.10;;;;;;4992927;28;20038;-75
2022/01/23 05:47:03;;;;;;;43.00;12.85;;;29.70;57.90;;;;;;4990862;28;20054;-76
2022/01/23 05:49:29;;;;;;;30.98;10.88;;;29.80;57.80;;;;;;4987116;28;20493;-74
2022/01/23 05:51:56;;;;;;;32.92;11.77;;;29.80;57.50;;;;;;4993250;28;20133;-79
2022/01/23 05:54:23;;;;;;;32.10;10.35;;;29.80;57.30;;;;;;4996017;28;20360;-76
2022/01/23 05:56:49;;;;;;;25.20;13.02;;;29.80;57.00;;;;;;4990762;28;20038;-77
2022/01/23 05:59:16;;;;;;;32.72;16.67;;;29.90;57.00;;;;;;4990656;28;20038;-75
2022/01/23 06:01:43;;;;;;;33.35;19.10;;;29.90;56.90;;;;;;4997399;28;20021;-76
2022/01/23 06:04:11;;;;;;;45.10;22.38;;;29.90;56.80;;;;;;4990656;28;20046;-77
2022/01/23 06:06:37;;;;;;;34.50;22.35;;;30.00;56.90;;;;;;4994808;28;20367;-75
2022/01/23 06:09:04;;;;;;;46.60;22.33;;;30.00;56.90;;;;;;4986422;28;20022;-74
2022/01/23 06:11:31;;;;;;;58.08;28.92;;;30.00;56.80;;;;;;5012390;28;20042;-77
2022/01/23 06:13:57;;;;;;;77.82;34.08;;;30.10;57.00;;;;;;4997260;28;20042;-76
2022/01/23 06:16:24;;;;;;;72.25;36.80;;;30.10;57.10;;;;;;4995808;28;20037;-76
2022/01/23 06:19:32;;;;;;;57.60;32.22;;;30.10;57.20;;;;;;4992705;28;20025;-73
2022/01/23 06:22:38;;;;;;;42.10;19.92;;;30.20;57.20;;;;;;4994603;28;20045;-77
2022/01/23 06:25:45;;;;;;;35.13;17.05;;;30.20;57.10;;;;;;4995395;28;20026;-79
2022/01/23 06:28:57;;;;;;;36.17;14.88;;;30.30;57.00;;;;;;4996602;28;20029;-76
2022/01/23 06:32:03;;;;;;;37.40;18.00;;;30.30;56.90;;;;;;4995027;28;20413;-77
2022/01/23 06:35:09;;;;;;;41.30;24.17;;;30.40;57.00;;;;;;4996003;28;20025;-79
2022/01/23 06:38:15;;;;;;;37.55;18.55;;;30.40;57.00;;;;;;4991934;28;20018;-81
2022/01/23 06:41:21;;;;;;;25.60;15.98;;;30.40;56.90;;;;;;4998996;28;20026;-79
2022/01/23 06:44:28;;;;;;;24.48;12.32;;;30.50;57.00;;;;;;4998515;28;20116;-77
2022/01/23 06:47:34;;;;;;;20.88;7.82;;;30.50;57.10;;;;;;4992923;28;20029;-78
2022/01/23 06:50:40;;;;;;;22.35;8.63;;;30.60;58.70;;;;;;4998825;28;20403;-75
2022/01/23 06:53:46;;;;;;;21.00;6.88;;;30.60;58.30;;;;;;5018632;28;20050;-75
2022/01/23 06:56:50;;;;;;;24.83;7.25;;;30.60;58.70;;;;;;4991759;28;20030;-74
2022/01/23 06:59:16;;;;;;;40.13;12.93;;;30.60;58.80;;;;;;4988472;28;20026;-74
2022/01/23 07:01:43;;;;;;;36.28;13.20;;;30.60;59.10;;;;;;4994713;28;20014;-79
2022/01/23 07:04:09;;;;;;;44.08;15.13;;;30.70;59.40;;;;;;4997589;28;20129;-73
2022/01/23 07:06:36;;;;;;;35.20;15.05;;;30.70;59.50;;;;;;4993661;28;20221;-74
2022/01/23 07:09:03;;;;;;;51.03;24.35;;;30.70;59.40;;;;;;4987657;28;20122;-78
2022/01/23 07:11:29;;;;;;;69.35;22.98;;;30.80;59.40;;;;;;5009681;28;20034;-75
2022/01/23 07:13:56;;;;;;;41.58;15.32;;;30.80;59.60;;;;;;4992555;28;20023;-78
2022/01/23 07:16:22;;;;;;;46.90;14.77;;;30.80;59.50;;;;;;4997783;28;20029;-75
2022/01/23 07:18:49;;;;;;;27.65;9.55;;;30.80;59.50;;;;;;4991510;28;20113;-76
2022/01/23 07:21:15;;;;;;;23.42;7.97;;;30.80;59.40;;;;;;4989009;28;20581;-76
2022/01/23 07:23:49;;;;;;;27.50;10.95;;;30.80;59.30;;;;;;4993453;28;20028;-76
2022/01/23 07:26:18;;;;;;;45.85;14.98;;;30.90;59.30;;;;;;4981444;28;20062;-76
2022/01/23 07:28:45;;;;;;;34.17;10.73;;;30.90;59.30;;;;;;4994760;28;20040;-73
2022/01/23 07:31:20;;;;;;;27.85;8.10;;;30.90;59.30;;;;;;4989523;28;20433;-75
2022/01/23 07:33:46;;;;;;;;;;;30.80;59.20;;;;;;4993761;28;20021;-73
2022/01/23 07:36:13;;;;;;;23.40;8.05;;;30.80;59.20;;;;;;4991833;28;19910;-74
2022/01/23 07:38:39;;;;;;;18.60;6.22;;;30.80;59.20;;;;;;5024492;28;20022;-76
2022/01/23 07:41:05;;;;;;;26.30;6.97;;;30.80;59.10;;;;;;4993256;28;20023;-74
2022/01/23 07:43:32;;;;;;;35.58;7.78;;;30.80;59.10;;;;;;4997863;28;20018;-73
2022/01/23 07:45:58;;;;;;;27.30;8.35;;;30.90;59.20;;;;;;4989781;28;20077;-74
2022/01/23 07:48:25;;;;;;;20.60;7.28;;;30.90;59.20;;;;;;4989230;28;20023;-72
2022/01/23 07:50:51;;;;;;;28.42;8.48;;;30.90;59.10;;;;;;4994144;28;20034;-73
2022/01/23 07:53:18;;;;;;;20.45;6.57;;;31.00;59.10;;;;;;4994262;28;20038;-75
2022/01/23 07:55:44;;;;;;;25.23;6.60;;;31.00;59.20;;;;;;4990013;28;20489;-76
2022/01/23 07:58:14;;;;;;;22.17;7.07;;;31.00;59.40;;;;;;4995679;28;20068;-76
2022/01/23 08:00:41;;;;;;;23.10;8.95;;;31.00;59.50;;;;;;4991243;28;20023;-77
2022/01/23 08:03:09;;;;;;;25.80;9.00;;;31.00;59.60;;;;;;4895143;28;3672961;-75
2022/01/23 08:05:39;;;;;;;20.15;6.50;;;31.00;59.60;;;;;;4997469;28;20037;-76
2022/01/23 08:08:06;;;;;;;19.88;6.13;;;31.10;59.60;;;;;;4993896;28;20038;-77
2022/01/23 08:10:33;;;;;;;23.70;7.07;;;31.10;59.50;;;;;;5003105;28;20025;-77
2022/01/23 08:13:01;;;;;;;20.55;7.07;;;31.10;59.50;;;;;;4986536;28;20034;-77
2022/01/23 08:15:28;;;;;;;19.10;7.80;;;31.10;59.40;;;;;;4991186;28;20030;-79
2022/01/23 08:17:58;;;;;;;24.88;9.70;;;31.10;59.50;;;;;;4991407;28;20059;-77
2022/01/23 08:20:24;;;;;;;26.60;7.80;;;31.10;59.50;;;;;;4997247;28;20026;-77
2022/01/23 08:22:51;;;;;;;31.00;10.40;;;31.10;59.60;;;;;;4985415;28;20162;-78
2022/01/23 08:25:17;;;;;;;22.75;7.70;;;31.10;59.50;;;;;;4997161;28;20034;-79
2022/01/23 08:27:44;;;;;;;28.50;9.18;;;31.10;59.50;;;;;;4989321;28;20427;-75
2022/01/23 08:30:13;;;;;;;25.00;8.82;;;31.10;59.30;;;;;;4997500;28;20551;-75
2022/01/23 08:32:39;;;;;;;23.85;8.07;;;31.10;59.30;;;;;;4990743;28;20041;-75
2022/01/23 08:35:07;;;;;;;22.88;7.32;;;31.10;59.40;;;;;;4992675;28;20058;-76
2022/01/23 08:37:33;;;;;;;24.85;8.55;;;31.20;59.40;;;;;;4994836;28;20032;-77
2022/01/23 08:40:01;;;;;;;24.48;9.70;;;31.10;59.40;;;;;;4998400;28;20044;-76
2022/01/23 08:42:27;;;;;;;18.17;6.97;;;31.20;59.40;;;;;;5021052;28;20034;-76
2022/01/23 08:44:54;;;;;;;24.58;7.68;;;31.20;59.40;;;;;;4991195;28;20383;-75
2022/01/23 08:47:22;;;;;;;30.45;8.25;;;31.20;59.40;;;;;;4997980;28;20487;-76
2022/01/23 08:49:50;;;;;;;32.03;7.55;;;31.20;59.50;;;;;;4995951;28;20022;-76
2022/01/23 08:52:19;;;;;;;24.48;8.38;;;31.20;59.40;;;;;;4988261;28;20038;-75
2022/01/23 08:54:51;;;;;;;23.27;8.38;;;31.20;59.30;;;;;;4987375;28;20050;-75
2022/01/23 08:57:19;;;;;;;18.80;7.40;;;31.30;59.30;;;;;;4993478;28;20021;-77
2022/01/23 08:59:46;;;;;;;20.60;8.60;;;31.30;59.20;;;;;;4994050;28;20117;-76
2022/01/23 09:02:12;;;;;;;20.08;6.95;;;31.30;59.20;;;;;;4988872;28;20073;-77
2022/01/23 09:04:39;;;;;;;23.48;6.90;;;31.30;59.10;;;;;;4993855;28;20084;-78
2022/01/23 09:07:06;;;;;;;37.88;8.20;;;31.40;59.10;;;;;;4993924;28;20030;-74
2022/01/23 09:09:37;;;;;;;31.00;7.70;;;31.40;59.10;;;;;;5001918;28;20034;-74
2022/01/23 09:12:28;;;;;;;32.47;8.00;;;31.40;59.00;;;;;;5009465;28;20556;-77
2022/01/23 09:14:55;;;;;;;32.17;7.88;;;31.50;59.10;;;;;;4984232;28;20023;-76
2022/01/23 09:17:22;;;;;;;35.08;8.95;;;31.50;59.10;;;;;;4992884;28;20018;-76
2022/01/23 09:19:48;;;;;;;31.50;9.82;;;31.60;59.30;;;;;;4998227;28;20437;-74
2022/01/23 09:22:16;;;;;;;32.75;8.25;;;31.60;59.00;;;;;;4990621;28;20396;-75
2022/01/23 09:24:42;;;;;;;24.98;7.68;;;31.70;58.90;;;;;;4992571;28;20034;-76
2022/01/23 09:27:18;;;;;;;20.02;7.47;;;31.70;58.60;;;;;;4994504;28;20441;-77
2022/01/23 09:29:48;;;;;;;22.85;8.75;;;31.80;58.60;;;;;;4996825;28;20022;-75
2022/01/23 09:32:18;;;;;;;20.50;7.13;;;31.80;58.40;;;;;;4980022;28;20048;-76
2022/01/23 09:34:45;;;;;;;26.20;8.05;;;31.80;58.10;;;;;;4992298;28;20065;-76
2022/01/23 09:37:15;;;;;;;19.77;7.05;;;31.80;58.10;;;;;;5028964;28;20034;-76
2022/01/23 09:39:45;;;;;;;20.17;8.00;;;31.90;58.10;;;;;;5010824;28;20470;-76
2022/01/23 09:42:19;;;;;;;22.70;7.95;;;32.00;58.00;;;;;;4989648;28;20057;-77
2022/01/23 09:44:58;;;;;;;24.33;7.88;;;32.00;57.90;;;;;;5003714;28;20434;-77
2022/01/23 09:47:27;;;;;;;18.83;7.13;;;32.00;57.70;;;;;;4993662;28;20507;-76
2022/01/23 09:49:55;;;;;;;17.02;6.57;;;32.00;57.50;;;;;;4990685;28;20023;-76
2022/01/23 09:52:22;;;;;;;19.83;7.32;;;32.10;57.50;;;;;;5015684;28;20437;-74
2022/01/23 09:55:01;;;;;;;22.55;9.27;;;32.10;57.40;;;;;;4989120;28;20438;-74
2022/01/23 09:57:31;;;;;;;25.27;8.70;;;32.10;57.40;;;;;;4989519;28;20097;-75
2022/01/23 10:00:01;;;;;;;21.45;7.53;;;32.10;57.30;;;;;;4994387;28;20018;-77
2022/01/23 10:02:28;;;;;;;20.98;8.32;;;32.20;57.30;;;;;;4990176;28;20085;-74
2022/01/23 10:04:57;;;;;;;20.63;7.30;;;32.30;57.40;;;;;;4991943;28;20046;-75
2022/01/23 10:07:24;;;;;;;24.35;8.60;;;32.30;57.40;;;;;;4994566;28;20461;-75
2022/01/23 10:09:58;;;;;;;22.58;7.97;;;32.30;57.40;;;;;;4993575;28;20054;-75
2022/01/23 10:12:28;;;;;;;17.13;7.38;;;32.30;57.30;;;;;;4992150;28;20054;-77
2022/01/23 10:15:34;;;;;;;28.10;8.48;;;32.30;57.10;;;;;;4990219;28;20022;-76
2022/01/23 10:18:40;;;;;;;32.28;8.10;;;32.40;57.10;;;;;;4991877;28;20018;-77
2022/01/23 10:21:06;;;;;;;42.63;9.93;;;32.40;57.20;;;;;;4997922;28;20014;-74
2022/01/23 10:23:34;;;;;;;41.95;9.57;;;32.40;57.30;;;;;;4990306;28;20030;-77
2022/01/23 10:26:02;;;;;;;26.75;8.10;;;32.40;57.30;;;;;;4991233;28;20070;-72
2022/01/23 10:29:08;;;;;;;24.08;8.02;;;32.40;57.60;;;;;;4989606;28;20018;-79
2022/01/23 10:32:23;;;;;;;32.90;8.95;;;32.50;57.80;;;;;;4992759;28;20042;-83
2022/01/23 10:35:47;;;;;;;39.83;9.80;;;32.50;58.10;;;;;;4982365;28;20074;-84
2022/01/23 10:38:59;;;;;;;28.63;8.30;;;32.50;58.00;;;;;;4991332;28;20399;-77
2022/01/23 10:42:14;;;;;;;51.15;9.70;;;32.50;57.30;;;;;;4986040;28;20053;-79
2022/01/23 10:48:42;;;;;;;53.08;11.35;;;32.60;57.50;;;;;;4997121;28;20046;-76
2022/01/23 10:51:19;;;;;;;37.58;16.15;;;32.60;57.10;;;;;;4998882;28;20038;-74
2022/01/23 10:54:40;;;;;;;45.70;25.40;;;32.70;56.90;;;;;;4990699;28;20113;-67
2022/01/23 10:57:56;;;;;;;52.22;26.77;;;32.70;57.00;;;;;;4994481;28;20137;-67
2022/01/23 11:01:02;;;;;;;65.75;16.02;;;32.70;57.30;;;;;;4992182;28;20030;-67
2022/01/23 11:04:07;;;;;;;47.65;12.52;;;32.80;57.80;;;;;;4997263;28;20050;-67
2022/01/23 11:07:21;;;;;;;43.15;29.05;;;32.80;57.70;;;;;;4998133;28;20030;-66
2022/01/23 11:10:28;;;;;;;102.32;92.03;;;32.80;57.40;;;;;;4994554;28;20038;-68
2022/01/23 11:19:38;;;;;;;75.65;49.67;;;33.00;57.50;;;;;;4993785;28;20057;-65
2022/01/23 11:22:06;;;;;;;53.10;38.75;;;33.00;57.50;;;;;;4990918;28;20028;-69
2022/01/23 11:24:45;;;;;;;93.70;74.35;;;33.00;57.50;;;;;;4997907;28;20433;-68
2022/01/23 11:27:20;;;;;;;96.10;75.85;;;33.00;57.60;;;;;;4988334;28;20031;-65
2022/01/23 11:30:14;;;;;;;64.70;38.83;;;33.00;57.50;;;;;;4996074;28;20026;-69
2022/01/23 11:32:42;;;;;;;29.90;13.52;;;33.00;57.50;;;;;;4985599;28;20489;-68
2022/01/23 11:35:13;;;;;;;26.52;8.85;;;33.00;57.30;;;;;;5002126;28;20484;-68
2022/01/23 11:37:50;;;;;;;28.15;8.07;;;33.00;57.30;;;;;;4997430;28;20030;-68
2022/01/23 11:40:34;;;;;;;39.97;9.32;;;33.00;57.40;;;;;;4991424;28;20501;-67
2022/01/23 11:53:59;;;;;;;16.45;6.00;;;32.80;57.10;;;;;;4996447;28;20040;-67
2022/01/23 11:56:29;;;;;;;25.92;6.72;;;32.70;57.40;;;;;;4987713;28;20037;-66
2022/01/23 11:58:55;;;;;;;19.60;6.05;;;32.70;57.50;;;;;;4991641;28;20546;-70
2022/01/23 12:01:25;;;;;;;17.23;6.25;;;32.70;57.60;;;;;;4994761;28;20022;-67
2022/01/23 12:04:11;;;;;;;25.60;6.70;;;32.70;57.70;;;;;;4995683;28;20057;-70
2022/01/23 12:06:44;;;;;;;15.63;5.38;;;32.70;57.80;;;;;;4991262;28;20026;-67
2022/01/23 12:09:17;;;;;;;10.85;5.53;;;32.70;57.60;;;;;;4991696;28;20034;-66
2022/01/23 12:12:39;;;;;;;13.93;4.47;;;32.60;57.30;;;;;;4998840;28;20042;-68
2022/01/23 12:18:21;;;;;;;6.05;3.30;;;32.50;57.20;;;;;;4991255;28;20492;-70
2022/01/23 12:20:49;;;;;;;4.43;2.83;;;32.50;57.10;;;;;;4997581;28;20034;-71
2022/01/23 12:23:17;;;;;;;6.60;3.22;;;32.50;57.30;;;;;;4990603;28;20019;-69
2022/01/23 12:25:49;;;;;;;5.45;3.28;;;32.50;57.30;;;;;;4992643;28;20548;-70
2022/01/23 12:28:24;;;;;;;4.20;3.03;;;32.40;57.20;;;;;;4994533;28;20109;-70
2022/01/23 12:31:18;;;;;;;6.90;3.28;;;32.40;57.20;;;;;;5001223;28;20037;-69
2022/01/23 12:33:47;;;;;;;5.32;3.38;;;32.40;57.10;;;;;;4995099;28;20061;-69
2022/01/23 12:36:14;;;;;;;10.45;4.50;;;32.40;57.10;;;;;;4993416;28;20066;-70
2022/01/23 12:38:49;;;;;;;8.55;4.47;;;32.40;57.20;;;;;;4991484;28;20030;-71
2022/01/23 12:41:32;;;;;;;19.00;5.82;;;32.40;57.20;;;;;;4986493;28;20425;-71
2022/01/23 12:44:25;;;;;;;44.03;14.68;;;32.50;57.10;;;;;;4998816;28;20034;-70
2022/01/23 12:46:55;;;;;;;46.20;12.82;;;32.50;57.10;;;;;;4987244;28;20073;-70
2022/01/23 12:49:31;;;;;;;29.02;9.80;;;32.60;57.00;;;;;;4992416;28;20668;-71
2022/01/23 12:52:10;;;;;;;13.45;5.18;;;32.70;57.00;;;;;;5013673;28;20045;-73
2022/01/23 12:54:50;;;;;;;10.48;3.95;;;32.70;56.80;;;;;;4991840;28;20042;-76
2022/01/23 12:57:25;;;;;;;12.38;4.30;;;32.80;56.70;;;;;;4994690;28;20022;-72
2022/01/23 12:59:56;;;;;;;13.60;4.45;;;32.80;56.60;;;;;;4987661;28;20050;-71
2022/01/23 13:02:50;;;;;;;16.98;5.35;;;32.90;56.60;;;;;;4994367;28;20058;-70
2022/01/23 13:05:31;;;;;;;8.52;4.13;;;32.90;56.40;;;;;;4986655;28;20054;-71
2022/01/23 13:08:47;;;;;;;10.68;4.88;;;33.00;56.30;;;;;;4994763;28;20055;-69
2022/01/23 13:11:53;;;;;;;21.30;9.38;;;33.00;56.10;;;;;;4990823;28;20033;-73
2022/01/23 13:14:27;;;;;;;18.55;10.05;;;33.10;56.30;;;;;;4993430;28;20390;-73
2022/01/23 13:17:25;;;;;;;19.05;7.28;;;33.10;56.30;;;;;;4995821;28;20117;-69
2022/01/23 13:30:52;;;;;;;17.65;5.35;;;33.40;56.20;;;;;;4993972;28;20054;-76
2022/01/23 13:33:24;;;;;;;18.15;5.65;;;33.40;56.40;;;;;;4989227;28;20041;-72
2022/01/23 13:36:00;;;;;;;12.50;5.43;;;33.40;56.10;;;;;;4995274;28;20355;-70
2022/01/23 13:38:56;;;;;;;10.85;4.35;;;33.50;56.10;;;;;;4993326;28;20561;-73
2022/01/23 13:41:45;;;;;;;8.65;4.85;;;33.50;56.10;;;;;;4996456;28;20029;-73
2022/01/23 13:48:04;;;;;;;17.15;6.50;;;33.50;56.10;;;;;;4987154;28;20387;-71
2022/01/23 13:59:59;;;;;;;16.85;6.57;;;33.70;55.70;;;;;;4987317;28;20064;-75
2022/01/23 14:02:55;;;;;;;8.85;5.00;;;33.70;55.50;;;;;;4992224;28;20054;-77
2022/01/23 14:05:44;;;;;;;12.98;4.65;;;33.80;55.10;;;;;;4991768;28;20529;-73
2022/01/23 14:08:16;;;;;;;25.10;6.63;;;33.80;54.90;;;;;;4988435;28;20033;-70
2022/01/23 14:10:42;;;;;;;18.15;5.50;;;33.80;55.20;;;;;;5012267;28;20489;-74
2022/01/23 14:13:19;;;;;;;15.38;4.45;;;33.80;54.60;;;;;;4987763;28;20038;-75
2022/01/23 14:16:02;;;;;;;15.77;5.20;;;33.80;54.70;;;;;;4989064;28;20414;-70
2022/01/23 14:18:31;;;;;;;16.52;4.78;;;33.90;54.70;;;;;;5001245;28;20089;-68
2022/01/23 14:21:09;;;;;;;28.88;6.72;;;33.90;54.60;;;;;;5009173;28;20068;-73
2022/01/23 14:23:38;;;;;;;51.35;9.68;;;33.90;54.50;;;;;;4988467;28;20380;-70
2022/01/23 14:26:09;;;;;;;45.10;10.38;;;33.90;55.00;;;;;;4995432;28;20122;-73
2022/01/23 14:28:50;;;;;;;39.30;14.77;;;33.90;55.10;;;;;;4992343;28;20057;-72
2022/01/23 14:31:22;;;;;;;51.33;14.57;;;34.00;55.10;;;;;;4983561;28;20093;-70
2022/01/23 14:33:57;;;;;;;45.13;12.65;;;34.10;54.90;;;;;;4996533;28;20069;-73
2022/01/23 14:36:30;;;;;;;43.10;8.75;;;34.10;54.40;;;;;;4992472;28;20034;-68
2022/01/23 14:39:04;;;;;;;30.73;6.33;;;34.00;53.80;;;;;;4999302;28;20516;-73
2022/01/23 14:41:36;;;;;;;14.23;5.13;;;34.10;53.80;;;;;;4994353;28;20271;-73
2022/01/23 14:44:21;;;;;;;14.25;4.43;;;34.00;53.20;;;;;;4989007;28;20031;-71
2022/01/23 14:46:55;;;;;;;62.10;9.23;;;33.90;53.00;;;;;;4988533;28;20038;-72
2022/01/23 14:49:34;;;;;;;9.90;4.40;;;33.80;53.10;;;;;;4992650;28;20041;-74
2022/01/23 14:52:13;;;;;;;11.52;5.65;;;33.70;53.40;;;;;;4992087;28;20040;-72
2022/01/23 14:54:41;;;;;;;11.40;5.75;;;33.70;53.80;;;;;;4987648;28;20018;-72
2022/01/23 14:57:12;;;;;;;8.05;4.25;;;33.70;53.70;;;;;;4987466;28;20023;-73
2022/01/23 14:59:42;;;;;;;14.52;4.97;;;33.70;53.40;;;;;;4987843;28;20492;-75
2022/01/23 15:02:18;;;;;;;13.65;5.47;;;33.70;53.40;;;;;;4991171;28;20690;-72
2022/01/23 15:04:47;;;;;;;11.30;5.00;;;33.70;53.30;;;;;;4987809;28;20066;-74
2022/01/23 15:07:17;;;;;;;12.23;5.68;;;33.70;53.50;;;;;;4992668;28;20037;-73
2022/01/23 15:09:47;;;;;;;15.50;5.03;;;33.70;53.60;;;;;;4990856;28;20042;-73
2022/01/23 15:12:15;;;;;;;13.10;4.63;;;33.80;53.50;;;;;;4990807;28;20037;-74
2022/01/23 15:14:42;;;;;;;15.43;5.13;;;33.80;53.10;;;;;;4993017;28;20039;-73
2022/01/23 15:17:20;;;;;;;23.70;6.90;;;33.80;53.10;;;;;;4987400;28;20061;-72
2022/01/23 15:19:53;;;;;;;16.73;5.70;;;33.80;53.20;;;;;;4991352;28;20490;-72
2022/01/23 15:22:27;;;;;;;17.38;6.18;;;33.90;53.10;;;;;;4989869;28;20034;-74
2022/01/23 15:25:10;;;;;;;21.02;12.25;;;33.90;52.30;;;;;;4989205;28;20485;-73
2022/01/23 15:27:49;;;;;;;19.17;7.40;;;33.90;51.70;;;;;;5004317;28;20062;-74
2022/01/23 15:30:16;;;;;;;15.10;6.05;;;33.90;51.60;;;;;;5006166;28;20055;-72
2022/01/23 15:32:45;;;;;;;17.52;6.00;;;33.90;51.80;;;;;;4989696;28;20041;-78
2022/01/23 15:35:17;;;;;;;17.98;5.60;;;33.80;52.00;;;;;;4990534;28;20022;-69
2022/01/23 15:37:45;;;;;;;14.10;6.03;;;33.60;51.80;;;;;;4989460;28;20453;-74
2022/01/23 15:40:16;;;;;;;16.10;4.68;;;33.50;52.50;;;;;;4991441;28;20035;-71
2022/01/23 15:42:57;;;;;;;10.07;5.75;;;33.40;52.50;;;;;;5002913;28;20088;-70
2022/01/23 15:45:25;;;;;;;10.93;4.53;;;33.40;52.90;;;;;;4985944;28;20053;-75
2022/01/23 15:47:55;;;;;;;12.80;4.88;;;33.30;52.90;;;;;;4989799;28;20045;-69
2022/01/23 15:50:21;;;;;;;12.05;4.85;;;33.10;52.70;;;;;;4991362;28;20033;-72
2022/01/23 15:52:49;;;;;;;8.68;4.40;;;33.00;53.00;;;;;;4989306;28;20034;-72
2022/01/23 15:55:17;;;;;;;12.05;5.22;;;32.80;53.00;;;;;;4990512;28;20050;-74
2022/01/23 15:57:48;;;;;;;11.38;4.88;;;32.70;53.60;;;;;;4986990;28;20019;-76
2022/01/23 16:00:57;;;;;;;15.85;5.95;;;32.60;53.90;;;;;;4991268;28;20050;-77
2022/01/23 16:04:03;;;;;;;11.60;5.05;;;32.60;53.70;;;;;;4990430;28;20065;-71
2022/01/23 16:07:11;;;;;;;10.68;3.97;;;32.40;54.10;;;;;;4989853;28;20569;-78
2022/01/23 16:10:17;;;;;;;9.80;4.88;;;32.40;54.80;;;;;;4989723;28;20023;-71
2022/01/23 16:13:23;;;;;;;8.75;4.15;;;32.20;55.20;;;;;;4989623;28;20176;-75
2022/01/23 16:16:14;;;;;;;13.23;4.28;;;32.00;55.60;;;;;;4992373;28;20065;-69
2022/01/23 16:18:52;;;;;;;9.82;4.50;;;31.90;56.00;;;;;;4984909;28;20026;-70
2022/01/23 16:21:21;;;;;;;11.27;4.88;;;31.80;55.80;;;;;;4987050;28;20050;-76
2022/01/23 16:23:50;;;;;;;10.65;4.28;;;31.80;55.80;;;;;;4992045;28;20113;-68
2022/01/23 16:26:19;;;;;;;12.68;4.90;;;31.60;56.90;;;;;;4986756;28;20026;-68
2022/01/23 16:28:47;;;;;;;11.25;5.20;;;31.50;56.80;;;;;;4991388;28;20023;-70
2022/01/23 16:31:14;;;;;;;22.45;7.05;;;31.40;57.10;;;;;;4987772;28;20119;-75